createdAt,value
2022-09-20T00:02:29.627Z,9.80
2022-09-20T00:04:59.676Z,9.80
2022-09-20T00:07:26.800Z,9.80
2022-09-20T00:09:56.273Z,9.80
2022-09-20T00:12:23.748Z,9.90
2022-09-20T00:14:53.333Z,9.90
2022-09-20T00:17:20.521Z,9.90
2022-09-20T00:19:47.880Z,9.80
2022-09-20T00:22:14.906Z,9.80
2022-09-20T00:24:48.842Z,9.80
2022-09-20T00:27:23.994Z,9.80
2022-09-20T00:29:51.039Z,9.90
2022-09-20T00:32:32.865Z,9.90
2022-09-20T00:35:00.123Z,9.90
2022-09-20T00:37:27.273Z,9.90
2022-09-20T00:40:14.397Z,9.90
2022-09-20T00:42:41.953Z,9.90
2022-09-20T00:45:29.049Z,9.90
2022-09-20T00:48:30.856Z,9.90
2022-09-20T00:51:07.826Z,9.90
2022-09-20T00:53:45.960Z,9.90
2022-09-20T00:56:31.224Z,9.90
2022-09-20T00:59:16.862Z,9.90
2022-09-20T01:01:48.340Z,9.80
2022-09-20T01:04:29.622Z,9.80
2022-09-20T01:07:10.209Z,9.80
2022-09-20T01:09:37.654Z,9.80
2022-09-20T01:12:12.188Z,9.80
2022-09-20T01:14:45.066Z,9.80
2022-09-20T01:17:13.848Z,9.80
2022-09-20T01:19:53.064Z,9.70
2022-09-20T01:22:31.801Z,9.70
2022-09-20T01:25:14.001Z,9.70
2022-09-20T01:27:49.753Z,9.70
2022-09-20T01:30:21.948Z,9.70
2022-09-20T01:33:11.368Z,9.70
2022-09-20T01:35:41.224Z,9.70
2022-09-20T01:38:11.166Z,9.60
2022-09-20T01:40:48.403Z,9.70
2022-09-20T01:43:40.789Z,9.60
2022-09-20T01:46:34.322Z,9.60
2022-09-20T01:49:46.400Z,9.60
2022-09-20T01:52:49.026Z,9.60
2022-09-20T01:55:45.005Z,9.50
2022-09-20T01:59:22.493Z,9.50
2022-09-20T02:01:53.657Z,9.50
2022-09-20T02:04:42.106Z,9.40
2022-09-20T02:07:46.550Z,9.30
2022-09-20T02:10:16.782Z,9.30
2022-09-20T02:13:03.834Z,9.20
2022-09-20T02:16:04.899Z,9.20
2022-09-20T02:19:06.361Z,9.20
2022-09-20T02:22:16.763Z,9.20
2022-09-20T02:24:52.896Z,9.20
2022-09-20T02:27:25.817Z,9.20
2022-09-20T02:30:19.247Z,9.10
2022-09-20T02:33:08.459Z,9.10
2022-09-20T02:35:41.493Z,9.10
2022-09-20T02:38:22.267Z,9.10
2022-09-20T02:41:16.717Z,9.00
2022-09-20T02:43:51.787Z,9.00
2022-09-20T02:46:22.023Z,8.90
2022-09-20T02:49:13.117Z,8.90
2022-09-20T02:52:04.799Z,8.80
2022-09-20T02:54:54.030Z,8.80
2022-09-20T02:57:33.459Z,8.80
2022-09-20T03:00:29.964Z,8.70
2022-09-20T03:03:13.501Z,8.80
2022-09-20T03:06:05.654Z,8.80
2022-09-20T03:09:09.853Z,8.80
2022-09-20T03:12:14.338Z,8.80
2022-09-20T03:14:56.759Z,8.80
2022-09-20T03:17:45.815Z,8.90
2022-09-20T03:21:00.093Z,8.90
2022-09-20T03:23:52.390Z,8.90
2022-09-20T03:26:40.785Z,9.00
2022-09-20T03:29:46.411Z,9.00
2022-09-20T03:32:19.864Z,9.10
2022-09-20T03:35:14.813Z,9.10
2022-09-20T03:38:19.917Z,9.10
2022-09-20T03:40:59.139Z,9.20
2022-09-20T03:43:46.519Z,9.20
2022-09-20T03:46:21.321Z,9.20
2022-09-20T03:49:31.373Z,9.30
2022-09-20T03:52:35.753Z,9.20
2022-09-20T03:55:38.451Z,9.20
2022-09-20T03:58:25.595Z,9.20
2022-09-20T04:01:16.403Z,9.20
2022-09-20T04:04:04.595Z,9.20
2022-09-20T04:06:37.709Z,9.10
2022-09-20T04:09:28.227Z,9.10
2022-09-20T04:12:33.223Z,9.10
2022-09-20T04:15:50.298Z,9.20
2022-09-20T04:18:43.511Z,9.20
2022-09-20T04:21:32.587Z,9.20
2022-09-20T04:24:05.094Z,9.20
2022-09-20T04:26:43.307Z,9.20
2022-09-20T04:29:29.758Z,9.20
2022-09-20T04:32:19.587Z,9.20
2022-09-20T04:37:46.829Z,9.20
2022-09-20T04:40:26.242Z,9.20
2022-09-20T04:43:15.295Z,9.20
2022-09-20T04:46:00.619Z,9.20
2022-09-20T04:48:36.459Z,9.20
2022-09-20T04:51:34.705Z,9.20
2022-09-20T04:57:55.910Z,9.20
2022-09-20T05:00:26.265Z,9.20
2022-09-20T05:03:12.709Z,9.20
2022-09-20T05:05:48.905Z,9.20
2022-09-20T05:08:49.281Z,9.20
2022-09-20T05:11:45.220Z,9.30
2022-09-20T05:14:48.011Z,9.50
2022-09-20T05:17:30.357Z,9.80
2022-09-20T05:20:37.660Z,9.90
2022-09-20T05:23:14.128Z,9.80
2022-09-20T05:26:05.616Z,9.80
2022-09-20T05:28:48.673Z,9.70
2022-09-20T05:31:20.378Z,9.70
2022-09-20T05:33:52.580Z,9.70
2022-09-20T05:36:25.762Z,9.70
2022-09-20T05:42:42.523Z,9.80
2022-09-20T05:45:45.402Z,10.40
2022-09-20T05:48:40.276Z,11.10
2022-09-20T05:54:07.470Z,11.60
2022-09-20T05:56:45.961Z,11.70
2022-09-20T05:59:57.838Z,11.70
2022-09-20T06:02:58.222Z,11.90
2022-09-20T06:05:43.118Z,12.80
2022-09-20T06:08:22.850Z,13.50
2022-09-20T06:10:55.746Z,14.70
2022-09-20T06:14:08.101Z,15.50
2022-09-20T06:17:02.708Z,16.20
2022-09-20T06:19:52.902Z,17.90
2022-09-20T06:25:45.302Z,24.10
2022-09-20T06:28:20.779Z,26.60
2022-09-20T06:30:55.629Z,25.90
2022-09-20T06:33:25.205Z,26.00
2022-09-20T06:35:59.439Z,26.30
2022-09-20T06:38:52.339Z,26.30
2022-09-20T06:41:20.333Z,25.20
2022-09-20T06:43:47.428Z,24.00
2022-09-20T06:46:39.957Z,22.20
2022-09-20T06:49:07.560Z,20.40
2022-09-20T06:51:38.602Z,18.90
2022-09-20T06:54:08.030Z,17.70
2022-09-20T06:56:36.166Z,16.60
2022-09-20T06:59:06.220Z,15.80
2022-09-20T07:01:33.754Z,15.00
2022-09-20T07:04:01.348Z,14.40
2022-09-20T07:06:28.369Z,13.80
2022-09-20T07:08:58.514Z,13.30
2022-09-20T07:11:30.236Z,13.00
2022-09-20T07:13:58.944Z,12.70
2022-09-20T07:16:41.231Z,12.70
2022-09-20T07:19:08.651Z,12.90
2022-09-20T07:21:57.667Z,13.20
2022-09-20T07:24:31.584Z,13.60
2022-09-20T07:27:03.116Z,14.20
2022-09-20T07:29:30.852Z,14.70
2022-09-20T07:31:58.491Z,14.80
2022-09-20T07:34:37.518Z,14.90
2022-09-20T07:37:05.063Z,15.10
2022-09-20T07:39:32.254Z,15.20
2022-09-20T07:42:08.584Z,15.00
2022-09-20T07:44:35.984Z,14.70
2022-09-20T07:47:03.288Z,14.80
2022-09-20T07:49:39.912Z,15.70
2022-09-20T07:52:14.924Z,18.30
2022-09-20T07:54:44.730Z,20.50
2022-09-20T07:57:12.514Z,24.00
2022-09-20T07:59:39.552Z,25.80
2022-09-20T08:02:09.653Z,24.70
2022-09-20T08:04:37.224Z,23.20
2022-09-20T08:07:09.538Z,21.40
2022-09-20T08:09:36.714Z,19.70
2022-09-20T08:14:51.442Z,17.30
2022-09-20T08:17:18.953Z,16.60
2022-09-20T08:19:45.997Z,16.20
2022-09-20T08:22:15.301Z,16.80
2022-09-20T08:24:42.780Z,19.40
2022-09-20T08:27:09.910Z,22.20
2022-09-20T08:29:37.205Z,23.70
2022-09-20T08:32:04.882Z,24.50
2022-09-20T08:34:32.075Z,23.70
2022-09-20T08:36:59.266Z,22.30
2022-09-20T08:42:34.922Z,19.60
2022-09-20T08:45:08.083Z,18.50
2022-09-20T08:47:39.735Z,18.70
2022-09-20T08:50:10.147Z,20.80
2022-09-20T08:52:39.709Z,22.40
2022-09-20T08:55:27.809Z,24.10
2022-09-20T08:57:59.884Z,24.50
2022-09-20T09:00:33.001Z,23.60
2022-09-20T09:03:05.987Z,22.50
2022-09-20T09:05:38.713Z,21.10
2022-09-20T09:08:17.948Z,19.80
2022-09-20T09:10:57.719Z,18.60
2022-09-20T09:13:33.442Z,18.00
2022-09-20T09:16:06.404Z,18.70
2022-09-20T09:18:37.882Z,20.00
2022-09-20T09:21:07.544Z,20.40
2022-09-20T09:23:41.671Z,20.20
2022-09-20T09:26:21.921Z,19.70
2022-09-20T09:29:09.119Z,19.20
2022-09-20T09:31:36.483Z,18.30
2022-09-20T09:34:04.055Z,17.70
2022-09-20T09:36:31.517Z,17.30
2022-09-20T09:39:27.475Z,16.80
2022-09-20T09:41:56.119Z,16.60
2022-09-20T09:44:24.599Z,16.80
2022-09-20T09:46:52.311Z,17.00
2022-09-20T09:49:20.912Z,17.10
2022-09-20T09:52:06.533Z,17.10
2022-09-20T09:54:37.564Z,17.10
2022-09-20T09:57:17.044Z,16.90
2022-09-20T10:00:06.810Z,16.70
2022-09-20T10:03:05.319Z,16.70
2022-09-20T10:05:33.355Z,16.70
2022-09-20T10:08:23.519Z,17.10
2022-09-20T10:11:19.327Z,17.40
2022-09-20T10:13:51.984Z,17.70
2022-09-20T10:16:53.104Z,17.80
2022-09-20T10:19:34.170Z,17.80
2022-09-20T10:22:07.379Z,17.90
2022-09-20T10:24:52.587Z,18.40
2022-09-20T10:27:41.676Z,18.80
2022-09-20T10:30:23.189Z,19.60
2022-09-20T10:33:13.815Z,19.90
2022-09-20T10:35:49.914Z,20.00
2022-09-20T10:38:23.809Z,22.20
2022-09-20T10:41:18.594Z,23.20
2022-09-20T10:43:51.875Z,23.20
2022-09-20T10:46:32.387Z,23.50
2022-09-20T10:49:38.427Z,24.40
2022-09-20T10:52:24.151Z,24.60
2022-09-20T10:55:08.537Z,23.50
2022-09-20T10:57:54.401Z,22.00
2022-09-20T11:00:21.779Z,20.70
2022-09-20T11:03:07.433Z,19.90
2022-09-20T11:05:43.960Z,18.90
2022-09-20T11:08:21.100Z,18.30
2022-09-20T11:11:09.490Z,18.10
2022-09-20T11:13:58.517Z,19.10
2022-09-20T11:16:29.190Z,20.00
2022-09-20T11:19:09.037Z,19.90
2022-09-20T11:21:48.278Z,19.80
2022-09-20T11:24:43.087Z,20.30
2022-09-20T11:27:26.808Z,20.80
2022-09-20T11:30:00.577Z,20.40
2022-09-20T11:33:05.792Z,19.60
2022-09-20T11:35:52.989Z,18.80
2022-09-20T11:38:20.342Z,17.80
2022-09-20T11:41:02.670Z,17.10
2022-09-20T11:43:31.725Z,16.80
2022-09-20T11:46:04.884Z,16.70
2022-09-20T11:48:52.187Z,16.60
2022-09-20T11:51:55.439Z,16.50
2022-09-20T11:54:38.067Z,16.30
2022-09-20T11:57:15.731Z,16.20
2022-09-20T11:59:51.712Z,16.20
2022-09-20T12:02:32.490Z,16.00
2022-09-20T12:05:00.643Z,15.90
2022-09-20T12:07:41.875Z,16.10
2022-09-20T12:10:22.203Z,16.20
2022-09-20T12:13:00.496Z,16.30
2022-09-20T12:15:39.132Z,16.40
2022-09-20T12:18:27.522Z,16.40
2022-09-20T12:21:00.985Z,16.30
2022-09-20T12:23:43.510Z,16.20
2022-09-20T12:26:20.152Z,16.10
2022-09-20T12:28:50.405Z,16.00
2022-09-20T12:31:23.714Z,16.00
2022-09-20T12:34:02.921Z,16.00
2022-09-20T12:36:36.918Z,15.90
2022-09-20T12:39:19.219Z,16.00
2022-09-20T12:42:03.381Z,16.00
2022-09-20T12:44:39.827Z,15.80
2022-09-20T12:47:10.293Z,15.60
2022-09-20T12:49:50.278Z,15.30
2022-09-20T12:52:38.198Z,14.90
2022-09-20T12:55:10.257Z,14.60
2022-09-20T12:57:39.353Z,14.40
2022-09-20T13:00:08.628Z,14.40
2022-09-20T13:02:52.194Z,14.40
2022-09-20T13:05:37.410Z,14.50
2022-09-20T13:08:27.306Z,14.80
2022-09-20T13:11:06.840Z,15.10
2022-09-20T13:13:44.046Z,15.40
2022-09-20T13:16:19.193Z,15.60
2022-09-20T13:18:49.819Z,15.70
2022-09-20T13:21:20.116Z,15.80
2022-09-20T13:23:50.973Z,16.00
2022-09-20T13:26:25.699Z,16.00
2022-09-20T13:28:55.583Z,16.10
2022-09-20T13:31:31.965Z,16.20
2022-09-20T13:34:22.819Z,16.40
2022-09-20T13:36:56.748Z,16.60
2022-09-20T13:39:34.877Z,16.80
2022-09-20T13:42:10.366Z,17.00
2022-09-20T13:44:41.630Z,17.10
2022-09-20T13:47:31.417Z,17.20
2022-09-20T13:50:28.499Z,17.30
2022-09-20T13:52:58.268Z,17.30
2022-09-20T13:55:28.375Z,17.30
2022-09-20T13:57:57.469Z,17.30
2022-09-20T14:00:25.699Z,17.20
2022-09-20T14:02:55.128Z,16.90
2022-09-20T14:05:26.193Z,16.60
2022-09-20T14:07:54.054Z,16.40
2022-09-20T14:10:33.864Z,16.30
2022-09-20T14:13:08.016Z,16.30
2022-09-20T14:15:41.319Z,16.10
2022-09-20T14:18:16.012Z,15.90
2022-09-20T14:20:47.694Z,15.70
2022-09-20T14:23:23.879Z,15.50
2022-09-20T14:26:24.193Z,15.40
2022-09-20T14:28:54.265Z,15.40
2022-09-20T14:31:27.137Z,15.40
2022-09-20T14:34:04.823Z,15.30
2022-09-20T14:36:32.619Z,15.10
2022-09-20T14:39:04.905Z,15.00
2022-09-20T14:41:37.500Z,14.90
2022-09-20T14:44:17.223Z,14.80
2022-09-20T14:46:44.346Z,14.70
2022-09-20T14:49:27.018Z,14.60
2022-09-20T14:52:14.759Z,14.50
2022-09-20T14:54:42.381Z,14.60
2022-09-20T14:57:09.602Z,14.70
2022-09-20T14:59:41.933Z,14.80
2022-09-20T15:02:17.653Z,14.90
2022-09-20T15:04:57.233Z,15.00
2022-09-20T15:07:24.783Z,15.10
2022-09-20T15:09:54.100Z,15.20
2022-09-20T15:12:21.634Z,15.30
2022-09-20T15:14:51.529Z,15.40
2022-09-20T15:17:20.824Z,15.40
2022-09-20T15:19:51.746Z,15.50
2022-09-20T15:22:19.239Z,15.60
2022-09-20T15:24:48.652Z,15.80
2022-09-20T15:27:15.726Z,16.00
2022-09-20T15:29:43.068Z,16.10
2022-09-20T15:32:13.277Z,16.20
2022-09-20T15:34:40.439Z,16.40
2022-09-20T15:37:07.910Z,16.50
2022-09-20T15:39:37.232Z,16.50
2022-09-20T15:42:06.681Z,16.50
2022-09-20T15:44:34.351Z,16.40
2022-09-20T15:47:03.648Z,16.30
2022-09-20T15:49:30.677Z,16.20
2022-09-20T15:51:58.149Z,16.10
2022-09-20T15:54:25.381Z,16.00
2022-09-20T15:56:52.476Z,15.90
2022-09-20T15:59:19.895Z,15.70
2022-09-20T16:01:49.814Z,15.60
2022-09-20T16:04:19.050Z,15.50
2022-09-20T16:06:49.836Z,15.30
2022-09-20T16:09:21.012Z,15.20
2022-09-20T16:11:49.029Z,14.90
2022-09-20T16:14:18.482Z,14.80
2022-09-20T16:16:45.959Z,14.60
2022-09-20T16:19:13.796Z,14.50
2022-09-20T16:21:42.986Z,14.30
2022-09-20T16:24:13.527Z,14.10
2022-09-20T16:26:41.570Z,13.90
2022-09-20T16:29:09.500Z,13.70
2022-09-20T16:31:47.754Z,13.50
2022-09-20T16:34:23.318Z,13.30
2022-09-20T16:36:54.626Z,13.10
2022-09-20T16:39:23.565Z,12.90
2022-09-20T16:41:53.828Z,12.70
2022-09-20T16:44:21.310Z,12.60
2022-09-20T16:46:49.017Z,12.40
2022-09-20T16:49:16.218Z,12.30
2022-09-20T16:51:44.400Z,12.20
2022-09-20T16:54:14.688Z,12.00
2022-09-20T16:56:46.180Z,11.90
2022-09-20T16:59:15.506Z,11.80
2022-09-20T17:01:43.528Z,11.60
2022-09-20T17:04:11.726Z,11.50
2022-09-20T17:06:39.876Z,11.30
2022-09-20T17:09:07.812Z,11.20
2022-09-20T17:11:46.874Z,11.10
2022-09-20T17:14:15.791Z,11.00
2022-09-20T17:16:43.171Z,10.80
2022-09-20T17:19:13.240Z,10.80
2022-09-20T17:21:43.203Z,10.70
2022-09-20T17:24:11.164Z,10.60
2022-09-20T17:26:41.049Z,10.50
2022-09-20T17:29:11.112Z,10.50
2022-09-20T17:31:40.428Z,10.40
2022-09-20T17:34:10.805Z,10.30
2022-09-20T17:36:41.034Z,10.30
2022-09-20T17:39:10.354Z,10.20
2022-09-20T17:41:41.560Z,10.20
2022-09-20T17:44:09.240Z,10.10
2022-09-20T17:46:44.817Z,10.10
2022-09-20T17:49:17.282Z,10.20
2022-09-20T17:51:47.228Z,10.20
2022-09-20T17:54:17.492Z,10.20
2022-09-20T17:56:49.490Z,10.20
2022-09-20T17:59:18.340Z,10.20
2022-09-20T18:01:47.552Z,10.20
2022-09-20T18:04:18.866Z,10.30
2022-09-20T18:06:50.588Z,10.20
2022-09-20T18:09:20.864Z,10.20
2022-09-20T18:11:52.543Z,10.20
2022-09-20T18:14:22.876Z,10.10
2022-09-20T18:16:59.210Z,10.00
2022-09-20T18:19:26.985Z,10.00
2022-09-20T18:21:57.320Z,9.90
2022-09-20T18:24:24.568Z,9.90
2022-09-20T18:26:51.996Z,9.80
2022-09-20T18:29:20.218Z,9.80
2022-09-20T18:31:52.516Z,9.70
2022-09-20T18:34:25.412Z,9.70
2022-09-20T18:36:55.250Z,9.70
2022-09-20T18:39:35.151Z,9.60
2022-09-20T18:42:03.415Z,9.60
2022-09-20T18:44:30.846Z,9.60
2022-09-20T18:46:58.186Z,9.60
2022-09-20T18:49:25.720Z,9.50
2022-09-20T18:51:55.264Z,9.50
2022-09-20T18:54:22.521Z,9.50
2022-09-20T18:56:51.538Z,9.50
2022-09-20T18:59:24.109Z,9.50
2022-09-20T19:01:51.674Z,9.40
2022-09-20T19:04:27.610Z,9.40
2022-09-20T19:07:10.859Z,9.40
2022-09-20T19:10:08.782Z,9.40
2022-09-20T19:12:45.448Z,9.40
2022-09-20T19:15:37.556Z,9.40
2022-09-20T19:18:34.670Z,9.40
2022-09-20T19:21:10.458Z,9.50
2022-09-20T19:23:50.215Z,9.50
2022-09-20T19:26:24.614Z,9.60
2022-09-20T19:28:55.255Z,9.70
2022-09-20T19:31:27.000Z,9.70
2022-09-20T19:33:56.351Z,9.80
2022-09-20T19:36:31.617Z,9.80
2022-09-20T19:39:15.731Z,9.90
2022-09-20T19:41:50.626Z,10.00
2022-09-20T19:44:39.719Z,10.00
2022-09-20T19:47:15.446Z,10.00
2022-09-20T19:49:58.724Z,10.00
2022-09-20T19:52:28.257Z,10.00
2022-09-20T19:54:58.373Z,10.00
2022-09-20T19:57:42.162Z,10.00
2022-09-20T20:00:13.878Z,9.90
2022-09-20T20:02:42.816Z,9.90
2022-09-20T20:05:15.896Z,10.00
2022-09-20T20:07:52.688Z,9.90
2022-09-20T20:10:42.723Z,9.90
2022-09-20T20:13:20.223Z,9.90
2022-09-20T20:16:00.550Z,9.90
2022-09-20T20:18:47.420Z,10.00
2022-09-20T20:21:30.053Z,10.00
2022-09-20T20:24:03.688Z,10.00
2022-09-20T20:26:31.419Z,10.00
2022-09-20T20:28:58.852Z,10.00
2022-09-20T20:31:35.120Z,10.00
2022-09-20T20:34:05.204Z,10.00
2022-09-20T20:36:32.202Z,10.00
2022-09-20T20:38:59.210Z,9.90
2022-09-20T20:41:26.740Z,10.00
2022-09-20T20:43:53.833Z,10.00
2022-09-20T20:46:26.300Z,9.90
2022-09-20T20:48:53.785Z,9.90
2022-09-20T20:51:22.582Z,9.90
2022-09-20T20:53:52.053Z,9.90
2022-09-20T20:56:21.287Z,9.90
2022-09-20T20:58:51.079Z,9.90
2022-09-20T21:01:19.552Z,9.90
2022-09-20T21:03:49.276Z,9.80
2022-09-20T21:06:20.584Z,9.80
2022-09-20T21:08:49.779Z,9.80
2022-09-20T21:11:19.927Z,9.70
2022-09-20T21:13:46.972Z,9.70
2022-09-20T21:16:18.377Z,9.60
2022-09-20T21:18:47.439Z,9.50
2022-09-20T21:21:23.102Z,9.50
2022-09-20T21:23:52.672Z,9.40
2022-09-20T21:26:26.592Z,9.40
2022-09-20T21:28:58.739Z,9.40
2022-09-20T21:31:31.670Z,9.40
2022-09-20T21:33:59.447Z,9.40
2022-09-20T21:36:30.585Z,9.40
2022-09-20T21:38:57.643Z,9.50
2022-09-20T21:41:33.294Z,9.50
2022-09-20T21:44:02.307Z,9.50
2022-09-20T21:46:32.409Z,9.60
2022-09-20T21:49:05.344Z,9.60
2022-09-20T21:51:36.354Z,9.70
2022-09-20T21:54:06.038Z,9.70
2022-09-20T21:56:35.926Z,9.80
2022-09-20T21:59:04.614Z,9.80
2022-09-20T22:01:35.689Z,9.80
2022-09-20T22:04:11.790Z,9.80
2022-09-20T22:06:41.374Z,9.80
2022-09-20T22:09:10.184Z,9.80
2022-09-20T22:11:42.703Z,9.80
2022-09-20T22:14:11.311Z,9.80
2022-09-20T22:16:40.105Z,9.70
2022-09-20T22:19:09.214Z,9.70
2022-09-20T22:21:42.760Z,9.70
2022-09-20T22:24:11.517Z,9.60
2022-09-20T22:26:44.740Z,9.60
2022-09-20T22:29:12.499Z,9.60
2022-09-20T22:31:42.520Z,9.60
2022-09-20T22:34:09.534Z,9.60
2022-09-20T22:36:39.527Z,9.60
2022-09-20T22:39:08.647Z,9.60
2022-09-20T22:41:37.593Z,9.60
2022-09-20T22:44:05.787Z,9.60
2022-09-20T22:46:36.092Z,9.60
2022-09-20T22:49:05.820Z,9.60
2022-09-20T22:51:36.543Z,9.60
2022-09-20T22:54:10.391Z,9.50
2022-09-20T22:56:38.109Z,9.50
2022-09-20T22:59:06.585Z,9.40
2022-09-20T23:01:36.234Z,9.30
2022-09-20T23:04:05.085Z,9.30
2022-09-20T23:06:38.867Z,9.20
2022-09-20T23:09:08.961Z,9.20
2022-09-20T23:11:36.991Z,9.20
2022-09-20T23:14:06.935Z,9.30
2022-09-20T23:16:37.277Z,9.30
2022-09-20T23:19:06.145Z,9.30
2022-09-20T23:21:34.229Z,9.40
2022-09-20T23:24:04.015Z,9.50
2022-09-20T23:26:34.806Z,9.50
2022-09-20T23:29:10.116Z,9.50
2022-09-20T23:31:39.182Z,9.50
2022-09-20T23:34:11.474Z,9.40
2022-09-20T23:36:40.726Z,9.30
2022-09-20T23:39:09.294Z,9.30
2022-09-20T23:41:36.853Z,9.20
2022-09-20T23:44:05.514Z,9.20
2022-09-20T23:46:35.502Z,9.10
2022-09-20T23:49:05.775Z,9.10
2022-09-20T23:51:35.780Z,9.00
2022-09-20T23:54:06.017Z,9.00
2022-09-20T23:56:33.342Z,9.00
2022-09-20T23:59:00.370Z,8.90
